Latest Weather Observations for Inverell RS

IDN60801

Issued at 9:32 pm EST Wednesday 1 July 2015 (issued every 30 minutes, with the page automatically refreshed every 10 minutes)

About weather observations | Map of weather stations | Latest weather observations for NSW | Other Formats
Station Details ID: 056018 Name: INVERELL RESEARCH CENTRE Lat: -29.78 Lon: 151.08 Height: 664.0 m
Data from the previous 72 hours. | See also: Recent months at Inverell RS
Date/Time
EST
Temp
°C
App
Temp
°C
Dew
Point
Rel
Hum
%
Delta-T
°C
Wind Press
QNH
hPa
Press
MSL
hPa
Rain
since 9 am
mm
Dir
 
Spd
km/h
Gust
km/h
Spd
kts
Gust
kts
01/09:30pm 7.8 6.8 7.2 96 0.3 WSW 2 7 1 4 1024.3 - 0.8
01/09:00pm 8.0 7.3 7.0 93 0.5 CALM 0 0 0 0 1024.5 1025.0 0.8
01/08:30pm 8.3 6.8 6.8 90 0.7 W 4 7 2 4 1024.6 - 0.8
01/08:00pm 10.2 8.2 7.1 81 1.5 WNW 7 15 4 8 1024.4 - 0.8
01/07:30pm 10.3 8.1 6.4 77 1.9 WNW 7 11 4 6 1024.3 - 0.8
01/07:00pm 11.2 8.8 5.3 67 2.8 WNW 7 13 4 7 1024.0 - 0.8
01/06:30pm 11.1 9.4 5.7 69 2.6 SSW 4 9 2 5 1023.8 - 0.8
01/06:00pm 12.0 9.7 5.8 66 3.0 SSW 7 11 4 6 1023.5 1024.2 0.8
01/05:30pm 12.2 9.5 5.6 64 3.2 SSW 9 15 5 8 1023.2 - 0.8
01/05:00pm 12.7 11.0 5.9 63 3.3 S 4 9 2 5 1022.9 - 0.8
01/04:30pm 13.7 11.5 6.0 59 3.8 S 7 13 4 7 1022.9 - 0.8
01/04:00pm 15.2 13.2 7.1 58 4.1 SW 7 11 4 6 1022.8 - 0.8
01/03:30pm 15.4 13.6 7.8 60 3.9 WSW 7 11 4 6 1023.0 - 0.8
01/03:00pm 14.9 13.3 8.1 64 3.5 WNW 6 9 3 5 1023.1 1023.7 0.8
01/02:30pm 12.8 10.9 7.7 71 2.6 WSW 7 11 4 6 1023.2 - 0.8
01/02:00pm 14.1 10.9 8.5 69 2.9 S 15 26 8 14 1023.3 - 0.0
01/01:30pm 16.9 13.9 6.2 49 5.4 SW 11 17 6 9 1023.3 - 0.0
01/01:00pm 16.5 13.5 6.2 50 5.2 SSW 11 22 6 12 1023.8 - 0.0
01/12:30pm 16.3 14.0 7.3 55 4.6 WNW 9 15 5 8 1024.3 - 0.0
01/12:00pm 15.1 12.7 7.0 58 4.1 SW 9 17 5 9 1024.8 1025.5 0.0
01/11:30am 14.0 11.4 7.9 66 3.1 SSW 11 17 6 9 1025.4 - 0.0
01/11:00am 14.7 12.1 7.9 63 3.5 SW 11 17 6 9 1025.7 - 0.0
01/10:30am 13.7 11.2 8.0 68 2.9 SW 11 19 6 10 1025.9 - 0.0
01/10:00am 13.7 11.5 9.3 75 2.3 SW 11 17 6 9 1026.0 - 0.0
01/09:30am 12.9 11.2 8.4 74 2.3 W 7 11 4 6 1026.0 - 0.0
01/09:00am 11.3 10.8 9.4 88 1.0 S 2 7 1 4 1026.0 1026.7 0.2
01/08:30am 10.4 10.1 8.6 89 0.9 CALM 0 0 0 0 1026.0 - 0.2
01/08:00am 10.0 9.6 8.4 90 0.8 CALM 0 0 0 0 1025.7 - 0.2
01/07:30am 8.6 8.1 8.0 96 0.3 CALM 0 0 0 0 1025.6 - 0.2
01/07:00am 8.2 7.7 7.8 97 0.2 CALM 0 0 0 0 1025.2 - 0.2
01/06:30am 7.4 5.6 7.0 97 0.2 S 6 7 3 4 1025.0 - 0.2
01/06:00am 8.0 7.4 7.6 97 0.2 CALM 0 0 0 0 1024.7 1025.4 0.2
01/05:30am 8.2 6.4 8.0 99 0.1 S 7 9 4 5 1024.6 - 0.2
01/05:00am 8.2 6.6 7.8 97 0.2 S 6 7 3 4 1024.7 - 0.2
01/04:30am 8.2 7.6 7.6 96 0.3 CALM 0 0 0 0 1024.6 - 0.2
01/04:00am 8.4 7.9 7.8 96 0.3 CALM 0 0 0 0 1024.6 - 0.2
01/03:30am 9.1 7.6 8.5 96 0.3 SSW 6 7 3 4 1024.7 - 0.2
01/03:00am 9.7 8.1 8.9 95 0.4 WSW 7 7 4 4 1024.9 1025.6 0.2
01/02:30am 9.4 7.8 8.6 95 0.4 S 7 9 4 5 1024.9 - 0.2
01/02:00am 9.3 8.3 8.7 96 0.3 W 4 13 2 7 1025.1 - 0.2
01/01:30am 9.4 8.8 8.8 96 0.3 N 2 7 1 4 1025.0 - 0.2
01/01:00am 9.7 8.3 8.7 93 0.5 SW 6 9 3 5 1025.2 - 0.2
01/12:30am 9.9 8.5 8.9 93 0.5 SSW 6 7 3 4 1025.5 - 0.2
01/12:00am 9.8 8.8 8.8 93 0.5 W 4 9 2 5 1025.8 1026.2 0.2
 
Date/Time
EST
Temp
°C
App
Temp
°C
Dew
Point
Rel
Hum
%
Delta-T
°C
Wind Press
QNH
hPa
Press
MSL
hPa
Rain
since 9 am
mm
Dir
 
Spd
km/h
Gust
km/h
Spd
kts
Gust
kts
30/11:30pm 9.9 9.7 9.1 95 0.4 CALM 0 0 0 0 1026.1 - 0.2
30/11:00pm 10.3 10.2 9.5 95 0.4 CALM 0 0 0 0 1026.1 - 0.0
30/10:30pm 10.8 10.6 9.2 90 0.8 CALM 0 0 0 0 1026.4 - 0.0
30/10:00pm 11.4 11.2 9.1 86 1.2 CALM 0 0 0 0 1026.8 - 0.0
30/09:30pm 11.3 9.8 8.3 82 1.5 S 6 7 3 4 1026.6 - 0.0
30/09:00pm 11.2 9.5 8.4 83 1.4 SSW 7 9 4 5 1026.6 1027.0 0.0
30/08:30pm 11.5 9.9 7.9 78 1.8 S 6 7 3 4 1026.6 - 0.0
30/08:00pm 12.0 10.4 8.0 76 2.0 S 6 11 3 6 1026.6 - 0.0
30/07:30pm 11.6 10.0 8.0 78 1.8 SE 6 7 3 4 1026.6 - 0.0
30/07:00pm 12.0 10.2 8.0 76 2.0 SSW 7 11 4 6 1026.5 - 0.0
30/06:30pm 12.8 10.7 8.3 74 2.3 S 9 11 5 6 1026.3 - 0.0
30/06:00pm 13.0 10.9 8.3 73 2.4 SSW 9 11 5 6 1026.2 1026.6 0.0
30/05:30pm 13.0 10.8 7.9 71 2.6 SW 9 13 5 7 1026.1 - 0.0
30/05:00pm 13.2 11.0 7.9 70 2.7 SW 9 13 5 7 1025.9 - 0.0
30/04:30pm 13.8 11.1 7.5 66 3.2 SW 11 17 6 9 1025.9 - 0.0
30/04:00pm 14.5 12.2 7.4 62 3.6 S 9 17 5 9 1025.8 - 0.0
30/03:30pm 15.2 12.5 7.4 59 4.0 S 11 17 6 9 1025.8 - 0.0
30/03:00pm 15.5 13.4 8.2 62 3.8 SW 9 15 5 8 1025.9 1026.3 0.0
30/02:30pm 16.4 13.8 7.9 57 4.4 WSW 11 26 6 14 1025.8 - 0.0
30/02:00pm 16.9 14.9 6.4 50 5.3 NW 6 13 3 7 1025.9 - 0.0
30/01:30pm 16.7 14.8 7.4 54 4.8 NNE 7 9 4 5 1026.1 - 0.0
30/01:00pm 16.3 14.4 7.6 56 4.5 NW 7 11 4 6 1026.5 - 0.0
30/12:30pm 15.1 13.5 8.1 63 3.6 NNE 6 9 3 5 1027.2 - 0.0
30/12:00pm 14.8 13.2 8.0 64 3.5 ENE 6 9 3 5 1027.8 1028.2 0.0
30/11:30am 14.7 12.6 8.1 64 3.4 NNE 9 13 5 7 1028.1 - 0.0
30/11:00am 14.4 12.2 7.7 64 3.4 NE 9 15 5 8 1028.7 - 0.0
30/10:30am 12.9 11.6 7.5 69 2.7 E 4 7 2 4 1028.9 - 0.0
30/10:00am 11.9 10.1 7.0 72 2.4 E 6 7 3 4 1029.0 - 0.0
30/09:30am 10.0 8.7 6.0 76 1.9 SE 2 7 1 4 1029.1 - 0.0
30/09:00am 8.2 6.8 5.6 84 1.2 SE 2 9 1 5 1029.0 1029.4 0.0
30/08:30am 7.6 6.3 5.9 89 0.8 E 2 7 1 4 1028.9 - 0.0
30/08:00am 7.6 6.5 5.2 85 1.1 CALM 0 0 0 0 1029.0 - 0.0
30/07:30am 7.5 6.0 5.1 85 1.1 ESE 2 6 1 3 1029.0 - 0.0
30/07:00am 7.9 5.7 5.3 84 1.2 SSE 6 11 3 6 1028.8 - 0.0
30/06:30am 7.4 4.6 5.2 86 1.0 SSE 9 11 5 6 1028.4 - 0.0
30/06:00am 6.1 3.7 5.2 94 0.4 SSE 7 9 4 5 1028.3 1028.9 0.0
30/05:30am 6.3 3.9 5.2 93 0.5 S 7 9 4 5 1028.3 - 0.0
30/05:00am 6.5 4.2 5.6 94 0.4 SE 7 9 4 5 1028.3 - 0.0
30/04:30am 7.7 6.4 5.8 88 0.9 SSE 2 7 1 4 1028.4 - 0.0
30/04:00am 7.2 5.9 5.9 91 0.6 SSE 2 6 1 3 1028.7 - 0.0
30/03:30am 8.1 6.1 6.4 89 0.8 S 6 7 3 4 1028.8 - 0.0
30/03:00am 7.3 5.3 6.2 93 0.5 SSE 6 9 3 5 1029.0 1029.5 0.0
30/02:30am 7.3 6.5 6.5 95 0.4 CALM 0 0 0 0 1029.1 - 0.0
30/02:00am 8.7 7.2 7.0 89 0.8 N 4 7 2 4 1029.0 - 0.0
30/01:30am 8.5 6.6 6.6 88 0.9 N 6 7 3 4 1029.3 - 0.0
30/01:00am 9.2 7.3 6.9 85 1.1 NNE 6 9 3 5 1029.4 - 0.0
30/12:30am 10.4 8.3 6.7 78 1.8 NE 7 13 4 7 1029.5 - 0.0
30/12:00am 10.0 7.6 6.9 81 1.5 E 9 11 5 6 1029.5 1030.0 0.0
 
Date/Time
EST
Temp
°C
App
Temp
°C
Dew
Point
Rel
Hum
%
Delta-T
°C
Wind Press
QNH
hPa
Press
MSL
hPa
Rain
since 9 am
mm
Dir
 
Spd
km/h
Gust
km/h
Spd
kts
Gust
kts
29/11:30pm 9.9 8.1 7.0 82 1.4 E 6 9 3 5 1029.5 - 0.0
29/11:00pm 11.1 8.8 7.3 77 1.9 ESE 9 15 5 8 1029.8 - 0.0
29/10:30pm 11.0 9.1 7.4 78 1.8 E 7 11 4 6 1030.0 - 0.0
29/10:00pm 10.9 9.0 7.7 80 1.6 E 7 11 4 6 1030.0 - 0.0
29/09:30pm 11.2 9.4 7.1 76 2.0 E 6 11 3 6 1030.3 - 0.0
29/09:00pm 11.1 8.5 5.9 70 2.5 SE 9 11 5 6 1030.4 1030.8 0.0
29/08:30pm 11.3 8.6 5.6 68 2.7 ESE 9 13 5 7 1030.4 - 0.0
29/08:00pm 12.2 8.9 4.3 58 3.7 SSE 11 15 6 8 1030.3 - 0.0
29/07:30pm 11.2 9.1 6.5 73 2.3 SSE 7 11 4 6 1029.9 - 0.0
29/07:00pm 13.3 10.5 6.9 65 3.2 WSW 11 13 6 7 1029.4 - 0.0
29/06:30pm 13.8 11.0 6.8 62 3.5 WSW 11 15 6 8 1029.0 - 0.0
29/06:00pm 14.6 11.6 6.1 56 4.2 SW 11 15 6 8 1028.8 1029.1 0.0
29/05:30pm 14.8 12.3 6.6 58 4.1 WSW 9 11 5 6 1028.6 - 0.0
29/05:00pm 15.6 13.6 7.1 57 4.3 SW 7 11 4 6 1028.3 - 0.0
29/04:30pm 16.4 14.4 7.0 53 4.8 S 7 13 4 7 1028.3 - 0.0
29/04:00pm 17.9 15.3 4.4 41 6.6 SSW 7 11 4 6 1028.4 - 0.0
29/03:30pm 18.2 15.6 4.3 39 6.8 SW 7 13 4 7 1028.4 - 0.0
29/03:00pm 18.6 15.9 3.8 37 7.2 S 7 13 4 7 1028.6 1029.0 0.0
29/02:30pm 19.0 15.6 4.1 37 7.3 W 11 17 6 9 1028.6 - 0.0
29/02:00pm 18.6 15.0 2.9 35 7.5 SSW 11 20 6 11 1028.7 - 0.0
29/01:30pm 19.0 15.9 3.5 35 7.5 WNW 9 13 5 7 1028.8 - 0.0
29/01:00pm 18.8 16.2 6.0 43 6.5 WSW 9 13 5 7 1029.4 - 0.0
29/12:30pm 18.5 16.3 6.3 45 6.3 S 7 13 4 7 1029.9 - 0.0
29/12:00pm 18.2 16.7 8.4 52 5.2 S 6 13 3 7 1030.3 1030.7 0.0
29/11:30am 17.1 15.2 7.6 53 5.0 SSE 7 11 4 6 1030.8 - 0.0
29/11:00am 16.7 15.0 8.3 57 4.4 N 7 11 4 6 1031.4 - 0.0
29/10:30am 16.1 14.5 8.2 59 4.1 ESE 6 9 3 5 1031.9 - 0.0
29/10:00am 14.8 12.9 7.5 61 3.7 ESE 7 9 4 5 1032.3 - 0.0
29/09:30am 13.5 11.5 7.1 65 3.2 ESE 7 11 4 6 1032.3 - 0.0
29/09:00am 12.5 10.3 6.4 66 3.0 SE 7 11 4 6 1032.4 1032.9 0.0
29/08:30am 10.9 8.9 7.0 77 1.9 SE 7 9 4 5 1032.4 - 0.0
29/08:00am 8.3 5.5 5.3 81 1.4 SSE 9 13 5 7 1032.2 - 0.0
29/07:30am 8.3 5.6 5.7 84 1.2 SSE 9 11 5 6 1031.9 - 0.0
29/07:00am 8.0 5.3 5.4 84 1.2 S 9 13 5 7 1031.7 - 0.0
29/06:30am 8.3 5.7 6.2 87 1.0 S 9 11 5 6 1031.6 - 0.0
29/06:00am 7.9 5.3 6.2 89 0.8 S 9 13 5 7 1031.3 1031.8 0.0
29/05:30am 7.1 4.8 5.6 90 0.7 S 7 11 4 6 1031.0 - 0.0
29/05:00am 7.3 5.0 5.8 90 0.7 S 7 9 4 5 1030.7 - 0.0
29/04:30am 5.6 3.9 4.2 91 0.6 SSE 2 7 1 4 1030.6 - 0.0
29/04:00am 7.0 5.6 5.5 90 0.7 S 2 7 1 4 1030.6 - 0.0
29/03:30am 8.0 5.9 5.9 86 1.0 S 6 7 3 4 1030.6 - 0.0
29/03:00am 7.9 5.6 5.5 85 1.1 S 7 11 4 6 1030.7 1031.2 0.0
29/02:30am 8.7 5.9 5.2 79 1.6 S 9 9 5 5 1030.7 - 0.0
29/02:00am 8.0 5.4 4.2 77 1.7 SSE 7 11 4 6 1030.7 - 0.0
29/01:30am 8.9 6.3 4.0 71 2.2 S 7 9 4 5 1030.9 - 0.0
29/01:00am 9.0 6.2 3.1 66 2.6 S 7 9 4 5 1031.1 - 0.0
29/12:30am 7.9 4.7 0.9 61 2.9 S 7 9 4 5 1031.1 - 0.0
29/12:00am 8.1 5.1 0.6 59 3.1 S 6 7 3 4 1031.2 1031.7 0.0
 
Date/Time
EST
Temp
°C
App
Temp
°C
Dew
Point
Rel
Hum
%
Delta-T
°C
Wind Press
QNH
hPa
Press
MSL
hPa
Rain
since 9 am
mm
Dir
 
Spd
km/h
Gust
km/h
Spd
kts
Gust
kts
28/11:30pm 8.7 5.6 1.4 60 3.1 SSE 7 9 4 5 1031.4 - 0.0
28/11:00pm 8.4 4.8 0.4 57 3.3 S 9 13 5 7 1031.5 - 0.0
28/10:30pm 7.0 3.8 0.9 65 2.5 SSE 7 9 4 5 1031.6 - 0.0
28/10:00pm 9.4 5.6 -0.4 50 4.0 S 9 11 5 6 1031.6 - 0.0

Other Formats:

Comma delimited format used in spreadsheet applications
http://www.bom.gov.au/fwo/IDN60801/IDN60801.94541.axf

JavaScript Object Notation format (JSON) in row-major order
http://www.bom.gov.au/fwo/IDN60801/IDN60801.94541.json